Time;durP1;ratioP1;P1;durP2;ratioP2;P2;SDS_P1;SDS_P2;PMS_P1;PMS_P2;Temp;Humidity;BMP_temperature;BMP_pressure;BME280_temperature;BME280_humidity;BME280_pressure;Samples;Min_cycle;Max_cycle;Signal;HPM_P1;HPM_P2
2023/12/16 00:00:16;;;;;;;4.45;1.02;;;4.50;99.90;;;;;;5012720;28;21054;-72
2023/12/16 00:02:42;;;;;;;2.83;1.75;;;4.50;99.90;;;;;;5028808;28;20040;-71
2023/12/16 00:05:08;;;;;;;1.80;1.55;;;4.60;99.90;;;;;;5035038;28;20060;-72
2023/12/16 00:07:34;;;;;;;3.92;2.03;;;4.70;99.90;;;;;;5036373;28;20036;-72
2023/12/16 00:10:00;;;;;;;2.55;1.48;;;4.70;99.90;;;;;;5017656;28;20038;-72
2023/12/16 00:12:25;;;;;;;3.13;1.95;;;4.80;99.90;;;;;;5027596;28;20064;-72
2023/12/16 00:14:51;;;;;;;2.58;1.02;;;4.80;99.90;;;;;;5013376;28;20039;-71
2023/12/16 00:17:17;;;;;;;1.73;1.35;;;4.80;99.90;;;;;;5029682;28;20053;-73
2023/12/16 00:19:42;;;;;;;2.67;1.45;;;4.80;99.90;;;;;;5024182;28;20060;-72
2023/12/16 00:22:08;;;;;;;2.83;0.93;;;4.80;99.90;;;;;;5020548;28;20040;-72
2023/12/16 00:24:34;;;;;;;7.65;2.53;;;4.70;99.90;;;;;;5024324;28;20064;-72
2023/12/16 00:26:59;;;;;;;6.43;1.65;;;4.70;99.90;;;;;;5012109;28;20132;-73
2023/12/16 00:29:25;;;;;;;2.33;1.17;;;4.80;99.90;;;;;;5029398;28;20053;-71
2023/12/16 00:31:51;;;;;;;3.38;1.00;;;4.90;99.90;;;;;;5008531;28;20603;-72
2023/12/16 00:34:16;;;;;;;5.28;1.27;;;4.90;99.90;;;;;;5022400;28;20021;-71
2023/12/16 00:36:42;;;;;;;3.47;1.33;;;5.00;99.90;;;;;;5014840;28;20548;-72
2023/12/16 00:39:09;;;;;;;4.10;1.25;;;5.00;99.90;;;;;;5019287;28;20402;-72
2023/12/16 00:41:35;;;;;;;7.50;2.45;;;5.10;99.90;;;;;;5012380;28;20033;-72
2023/12/16 00:44:04;;;;;;;1.58;1.02;;;5.30;99.90;;;;;;5026469;28;20507;-71
2023/12/16 00:46:31;;;;;;;3.42;2.33;;;5.40;99.90;;;;;;5010256;28;20033;-71
2023/12/16 00:48:56;;;;;;;6.40;1.52;;;5.30;99.90;;;;;;5028405;28;21077;-72
2023/12/16 00:51:22;;;;;;;3.83;1.10;;;5.60;99.90;;;;;;5014211;28;20045;-72
2023/12/16 00:53:48;;;;;;;3.85;1.58;;;5.80;99.90;;;;;;5023175;28;20439;-71
2023/12/16 00:56:14;;;;;;;4.22;1.80;;;6.20;99.90;;;;;;5013069;28;20029;-72
2023/12/16 00:58:39;;;;;;;2.80;1.40;;;6.20;99.90;;;;;;5024551;28;20034;-72
2023/12/16 01:01:05;;;;;;;1.30;1.00;;;6.40;99.90;;;;;;5020328;28;20485;-72
2023/12/16 01:03:31;;;;;;;3.08;0.80;;;6.60;99.90;;;;;;5020315;28;20142;-72
2023/12/16 01:05:56;;;;;;;2.45;1.40;;;6.90;99.90;;;;;;5021022;28;20171;-72
2023/12/16 01:08:22;;;;;;;9.07;0.60;;;7.00;99.90;;;;;;5015059;28;20800;-72
2023/12/16 01:10:48;;;;;;;4.20;0.82;;;7.20;99.90;;;;;;5027638;28;20038;-74
2023/12/16 01:13:13;;;;;;;3.15;1.13;;;7.40;99.90;;;;;;5012724;28;20026;-73
2023/12/16 01:15:39;;;;;;;2.83;0.77;;;7.50;99.90;;;;;;5027404;28;20397;-71
2023/12/16 01:18:04;;;;;;;3.28;0.80;;;7.60;99.90;;;;;;5012077;28;20113;-72
2023/12/16 01:20:30;;;;;;;6.60;0.57;;;7.70;99.90;;;;;;5020492;28;20040;-73
2023/12/16 01:22:56;;;;;;;7.88;1.48;;;7.80;99.90;;;;;;5013383;28;20045;-73
2023/12/16 01:25:21;;;;;;;1.83;1.73;;;7.80;99.90;;;;;;5022639;28;20509;-73
2023/12/16 01:27:48;;;;;;;12.00;1.70;;;7.90;99.90;;;;;;5008084;28;20061;-72
2023/12/16 01:30:13;;;;;;;5.85;1.60;;;8.00;99.90;;;;;;5025698;28;20119;-73
2023/12/16 01:32:39;;;;;;;8.27;1.10;;;8.10;99.90;;;;;;5008136;28;20034;-73
2023/12/16 01:35:05;;;;;;;0.63;0.55;;;8.00;99.90;;;;;;5026819;28;20044;-73
2023/12/16 01:37:31;;;;;;;3.58;1.13;;;8.00;99.90;;;;;;5017830;28;20123;-73
2023/12/16 01:39:57;;;;;;;10.27;2.13;;;8.00;99.90;;;;;;5018372;28;20110;-73
2023/12/16 01:42:22;;;;;;;2.13;1.02;;;8.00;99.90;;;;;;5028851;28;20482;-73
2023/12/16 01:44:48;;;;;;;1.75;1.20;;;8.10;99.90;;;;;;5011753;28;20219;-73
2023/12/16 01:47:15;;;;;;;19.60;1.70;;;8.20;99.90;;;;;;5022714;28;20381;-72
2023/12/16 01:49:41;;;;;;;4.25;1.80;;;8.20;99.90;;;;;;5016361;28;20037;-71
2023/12/16 01:52:07;;;;;;;1.52;0.88;;;8.20;99.90;;;;;;5026238;28;19913;-73
2023/12/16 01:54:33;;;;;;;2.67;1.67;;;8.20;99.90;;;;;;5016427;28;20369;-71
2023/12/16 01:57:00;;;;;;;2.80;1.10;;;8.30;99.90;;;;;;5030210;28;20030;-72
2023/12/16 01:59:27;;;;;;;4.97;1.33;;;8.30;99.90;;;;;;5012229;28;20516;-72
2023/12/16 02:01:53;;;;;;;4.07;1.38;;;8.30;99.90;;;;;;5027480;28;20036;-73
2023/12/16 02:04:19;;;;;;;3.10;0.70;;;8.40;99.90;;;;;;5015436;28;20041;-73
2023/12/16 02:06:45;;;;;;;1.25;0.63;;;8.50;99.90;;;;;;5021613;28;20038;-73
2023/12/16 02:09:13;;;;;;;4.25;0.75;;;8.50;99.90;;;;;;5010383;28;20033;-72
2023/12/16 02:11:39;;;;;;;3.05;0.70;;;8.60;99.90;;;;;;5021579;28;20540;-73
2023/12/16 02:14:06;;;;;;;9.40;1.58;;;8.60;99.90;;;;;;5009450;28;20025;-72
2023/12/16 02:16:31;;;;;;;1.52;0.52;;;8.70;99.90;;;;;;5028596;28;20135;-72
2023/12/16 02:18:57;;;;;;;2.28;0.75;;;8.80;99.90;;;;;;5013605;28;20425;-72
2023/12/16 02:21:23;;;;;;;0.85;0.65;;;8.80;99.90;;;;;;5028069;28;20172;-72
2023/12/16 02:23:48;;;;;;;0.57;0.35;;;8.80;99.90;;;;;;5028909;28;20120;-73
2023/12/16 02:26:14;;;;;;;9.48;0.65;;;8.90;99.90;;;;;;5017578;28;20089;-73
2023/12/16 02:28:40;;;;;;;0.45;0.45;;;9.00;99.90;;;;;;5033485;28;20555;-71
2023/12/16 02:31:05;;;;;;;1.95;0.60;;;9.10;99.90;;;;;;5016122;28;20030;-71
2023/12/16 02:33:31;;;;;;;3.60;1.00;;;9.00;99.90;;;;;;5024001;28;20084;-72
2023/12/16 02:35:59;;;;;;;2.42;1.02;;;9.10;99.90;;;;;;5015858;28;20458;-72
2023/12/16 02:38:24;;;;;;;4.53;0.95;;;9.20;99.90;;;;;;5031122;28;20144;-73
2023/12/16 02:40:50;;;;;;;1.13;1.00;;;9.20;99.90;;;;;;5013381;28;20043;-72
2023/12/16 02:43:16;;;;;;;1.45;1.02;;;9.30;99.90;;;;;;5031746;28;20029;-73
2023/12/16 02:45:42;;;;;;;1.55;0.80;;;9.30;99.90;;;;;;5013326;28;20064;-72
2023/12/16 02:48:07;;;;;;;2.70;0.70;;;9.40;99.90;;;;;;5057412;28;20024;-73
2023/12/16 02:50:33;;;;;;;0.82;0.82;;;9.40;99.90;;;;;;5030917;28;20133;-73
2023/12/16 02:52:59;;;;;;;1.88;0.55;;;9.40;99.90;;;;;;5029275;28;20029;-73
2023/12/16 02:55:25;;;;;;;6.88;0.98;;;9.40;99.90;;;;;;5019717;28;20018;-72
2023/12/16 02:57:51;;;;;;;1.88;0.60;;;9.40;99.90;;;;;;5023547;28;20653;-72
2023/12/16 03:00:16;;;;;;;2.95;1.40;;;9.50;99.90;;;;;;5012024;28;20119;-72
2023/12/16 03:02:42;;;;;;;4.05;1.23;;;9.40;99.90;;;;;;5030615;28;20059;-72
2023/12/16 03:05:08;;;;;;;3.42;0.70;;;9.30;99.90;;;;;;5027481;28;20124;-72
2023/12/16 03:07:33;;;;;;;2.08;0.80;;;9.40;99.90;;;;;;5013889;28;21042;-73
2023/12/16 03:09:59;;;;;;;4.63;1.55;;;9.40;99.90;;;;;;5022793;28;20467;-73
2023/12/16 03:12:25;;;;;;;2.70;0.68;;;9.50;99.90;;;;;;5009750;28;20025;-73
2023/12/16 03:14:51;;;;;;;4.53;0.60;;;9.50;99.90;;;;;;5026851;28;20033;-73
2023/12/16 03:17:16;;;;;;;9.85;0.70;;;9.50;99.90;;;;;;5018455;28;20033;-71
2023/12/16 03:19:42;;;;;;;0.82;0.80;;;9.50;99.90;;;;;;5024607;28;20115;-71
2023/12/16 03:22:08;;;;;;;1.95;1.65;;;9.50;99.90;;;;;;5016958;28;20481;-73
2023/12/16 03:24:34;;;;;;;1.42;0.90;;;9.60;99.90;;;;;;5031738;28;20072;-72
2023/12/16 03:26:59;;;;;;;0.88;0.45;;;9.70;99.90;;;;;;5012813;28;20472;-72
2023/12/16 03:29:25;;;;;;;1.58;0.47;;;9.60;99.90;;;;;;5025253;28;20042;-73
2023/12/16 03:31:51;;;;;;;0.73;0.50;;;9.70;99.90;;;;;;5016127;28;20120;-71
2023/12/16 03:34:17;;;;;;;8.88;1.30;;;9.60;99.90;;;;;;5028336;28;20057;-72
2023/12/16 03:36:43;;;;;;;0.63;0.60;;;9.70;99.90;;;;;;5018858;28;20116;-72
2023/12/16 03:39:09;;;;;;;3.78;0.60;;;9.70;99.90;;;;;;5026376;28;20515;-71
2023/12/16 03:41:34;;;;;;;2.10;1.58;;;9.80;99.90;;;;;;5011511;28;20033;-72
2023/12/16 03:44:00;;;;;;;6.22;1.20;;;9.80;99.90;;;;;;5028935;28;20108;-72
2023/12/16 03:46:26;;;;;;;0.70;0.70;;;9.80;99.90;;;;;;5024162;28;20044;-72
2023/12/16 03:48:52;;;;;;;6.07;0.82;;;9.80;99.90;;;;;;5016329;28;20037;-72
2023/12/16 03:51:21;;;;;;;1.88;0.60;;;9.80;99.90;;;;;;5027259;28;20029;-72
2023/12/16 03:53:46;;;;;;;3.73;1.07;;;9.90;99.90;;;;;;5009600;28;20034;-73
2023/12/16 03:56:12;;;;;;;0.60;0.60;;;9.90;99.90;;;;;;5027568;28;20045;-72
2023/12/16 03:58:37;;;;;;;5.50;0.85;;;9.90;99.90;;;;;;5009379;28;20025;-72
2023/12/16 04:01:04;;;;;;;1.15;1.00;;;9.90;99.90;;;;;;5026202;28;20037;-73
2023/12/16 04:03:30;;;;;;;4.20;0.63;;;9.90;99.90;;;;;;5011674;28;20184;-72
2023/12/16 04:05:55;;;;;;;4.18;1.23;;;9.90;99.90;;;;;;5024187;28;20420;-72
2023/12/16 04:08:21;;;;;;;1.30;0.63;;;9.90;99.90;;;;;;5015318;28;20041;-74
2023/12/16 04:10:47;;;;;;;2.20;0.77;;;9.80;99.90;;;;;;5027546;28;20037;-71
2023/12/16 04:13:15;;;;;;;0.98;0.52;;;9.90;99.90;;;;;;5009187;28;20031;-72
2023/12/16 04:15:40;;;;;;;0.50;0.50;;;9.90;99.90;;;;;;5027852;28;20524;-71
2023/12/16 04:18:06;;;;;;;1.92;0.57;;;9.90;99.90;;;;;;5015216;28;20037;-71
2023/12/16 04:20:32;;;;;;;1.25;0.52;;;9.80;99.90;;;;;;5022191;28;20033;-72
2023/12/16 04:22:58;;;;;;;1.25;0.30;;;9.80;99.90;;;;;;5012924;28;20025;-73
2023/12/16 04:25:23;;;;;;;0.50;0.50;;;9.90;99.90;;;;;;5024372;28;20452;-73
2023/12/16 04:27:49;;;;;;;0.28;0.17;;;10.00;99.90;;;;;;5021641;28;20072;-73
2023/12/16 04:30:15;;;;;;;3.13;0.30;;;10.10;99.90;;;;;;5018385;28;20477;-72
2023/12/16 04:32:40;;;;;;;3.47;0.40;;;10.10;99.90;;;;;;5027317;28;20619;-73
2023/12/16 04:35:06;;;;;;;0.10;0.10;;;10.20;99.90;;;;;;5014533;28;20083;-72
2023/12/16 04:37:32;;;;;;;1.75;0.20;;;10.30;99.90;;;;;;5028715;28;20068;-72
2023/12/16 04:39:58;;;;;;;0.28;0.28;;;10.30;99.90;;;;;;5009960;28;20470;-72
2023/12/16 04:42:23;;;;;;;0.20;0.10;;;10.30;99.90;;;;;;5027579;28;20378;-73
2023/12/16 04:44:49;;;;;;;1.80;0.20;;;10.40;99.90;;;;;;5016045;28;20064;-73
2023/12/16 04:47:14;;;;;;;1.88;0.40;;;10.30;99.90;;;;;;5023064;28;20614;-73
2023/12/16 04:49:41;;;;;;;0.30;0.30;;;10.30;99.90;;;;;;5013095;28;20087;-73
2023/12/16 04:52:06;;;;;;;5.75;0.50;;;10.40;99.90;;;;;;5028677;28;20581;-72
2023/12/16 04:54:32;;;;;;;0.98;0.57;;;10.40;99.90;;;;;;5012212;28;20037;-72
2023/12/16 04:56:57;;;;;;;0.08;0.08;;;10.50;99.90;;;;;;5027539;28;20037;-72
2023/12/16 04:59:23;;;;;;;0.10;0.10;;;10.50;99.90;;;;;;5012637;28;20029;-72
2023/12/16 05:01:49;;;;;;;0.10;0.10;;;10.50;99.90;;;;;;5023100;28;20041;-72
2023/12/16 05:04:14;;;;;;;3.83;0.30;;;10.50;99.90;;;;;;5017049;28;20112;-72
2023/12/16 05:06:40;;;;;;;4.68;0.68;;;10.50;99.90;;;;;;5021997;28;20120;-73
2023/12/16 05:09:10;;;;;;;0.20;0.10;;;10.50;99.90;;;;;;5029934;28;20037;-73
2023/12/16 05:11:35;;;;;;;0.17;0.10;;;10.50;99.90;;;;;;5020268;28;20045;-73
2023/12/16 05:14:01;;;;;;;0.85;0.28;;;10.50;99.90;;;;;;5024375;28;20151;-73
2023/12/16 05:16:27;;;;;;;0.08;0.08;;;10.50;99.90;;;;;;5012689;28;21148;-73
2023/12/16 05:18:54;;;;;;;3.45;0.30;;;10.50;99.90;;;;;;5024697;28;20791;-72
2023/12/16 05:21:20;;;;;;;0.38;0.00;;;10.50;99.90;;;;;;5011578;28;20033;-72
2023/12/16 05:23:46;;;;;;;2.67;0.40;;;10.60;99.90;;;;;;5028660;28;20033;-73
2023/12/16 05:26:12;;;;;;;0.20;0.08;;;10.70;99.90;;;;;;5010055;28;20118;-72
2023/12/16 05:28:37;;;;;;;0.45;0.10;;;10.70;99.90;;;;;;5042607;28;20054;-72
2023/12/16 05:31:04;;;;;;;0.35;0.10;;;10.70;99.90;;;;;;5040840;28;20045;-71
2023/12/16 05:33:30;;;;;;;0.30;0.10;;;10.70;99.90;;;;;;5040393;28;20129;-72
2023/12/16 05:35:55;;;;;;;1.30;0.30;;;10.80;99.90;;;;;;5013203;28;20033;-71
2023/12/16 05:38:21;;;;;;;0.60;0.30;;;10.80;99.90;;;;;;5026027;28;20485;-72
2023/12/16 05:40:47;;;;;;;3.50;1.00;;;10.80;99.90;;;;;;5012332;28;20457;-73
2023/12/16 05:43:13;;;;;;;0.43;0.10;;;10.80;99.90;;;;;;5030164;28;20045;-73
2023/12/16 05:45:38;;;;;;;0.73;0.30;;;10.80;99.90;;;;;;5019115;28;20040;-73
2023/12/16 05:48:04;;;;;;;0.70;0.47;;;10.80;99.90;;;;;;5022749;28;20044;-73
2023/12/16 05:50:30;;;;;;;2.58;0.32;;;10.80;99.90;;;;;;5029257;28;20190;-73
2023/12/16 05:52:55;;;;;;;0.28;0.10;;;10.80;99.90;;;;;;5015366;28;20455;-73
2023/12/16 05:55:21;;;;;;;1.95;0.43;;;10.80;99.90;;;;;;5028787;28;20060;-72
2023/12/16 05:57:47;;;;;;;0.05;0.05;;;10.80;99.90;;;;;;5019500;28;20029;-73
2023/12/16 06:00:13;;;;;;;3.83;0.38;;;10.80;99.90;;;;;;5027287;28;20033;-73
2023/12/16 06:02:38;;;;;;;15.07;0.65;;;10.80;99.90;;;;;;5018978;28;20036;-73
2023/12/16 06:05:04;;;;;;;0.13;0.13;;;10.70;99.90;;;;;;5032025;28;20071;-72
2023/12/16 06:07:30;;;;;;;5.35;0.52;;;10.60;99.90;;;;;;5009658;28;20057;-72
2023/12/16 06:09:56;;;;;;;0.20;0.13;;;10.60;99.90;;;;;;5032997;28;20029;-72
2023/12/16 06:12:22;;;;;;;0.40;0.20;;;10.60;99.90;;;;;;5016572;28;20544;-73
2023/12/16 06:14:47;;;;;;;5.57;0.65;;;10.60;99.90;;;;;;5025773;28;20033;-72
2023/12/16 06:17:13;;;;;;;0.20;0.20;;;10.60;99.90;;;;;;5015044;28;20108;-73
2023/12/16 06:19:38;;;;;;;8.82;0.65;;;10.60;99.90;;;;;;5027816;28;20110;-71
2023/12/16 06:22:04;;;;;;;0.22;0.20;;;10.70;99.90;;;;;;5015125;28;20556;-72
2023/12/16 06:24:30;;;;;;;0.10;0.10;;;10.60;99.90;;;;;;5030496;28;20032;-72
2023/12/16 06:26:55;;;;;;;1.65;0.38;;;10.70;99.90;;;;;;5012368;28;20049;-72
2023/12/16 06:29:21;;;;;;;0.57;0.40;;;10.70;99.90;;;;;;5027724;28;20038;-72
2023/12/16 06:31:47;;;;;;;1.23;0.75;;;10.70;99.90;;;;;;5031014;28;20041;-73
2023/12/16 06:34:13;;;;;;;0.22;0.22;;;10.70;99.90;;;;;;5014511;28;20037;-72
2023/12/16 06:36:38;;;;;;;1.70;0.35;;;10.70;99.90;;;;;;5029122;28;20130;-72
2023/12/16 06:39:04;;;;;;;5.20;0.40;;;10.70;99.90;;;;;;5013614;28;20033;-73
2023/12/16 06:41:30;;;;;;;2.17;1.08;;;10.60;99.90;;;;;;5023090;28;20120;-72
2023/12/16 06:43:56;;;;;;;5.47;0.65;;;10.60;99.90;;;;;;5023164;28;20036;-72
2023/12/16 06:46:23;;;;;;;1.45;0.77;;;10.70;99.90;;;;;;5034215;28;20033;-72
2023/12/16 06:48:49;;;;;;;1.75;0.95;;;10.70;99.90;;;;;;5016442;28;20033;-73
2023/12/16 06:51:15;;;;;;;0.30;0.30;;;10.70;99.90;;;;;;5030159;28;20047;-72
2023/12/16 06:53:40;;;;;;;0.30;0.30;;;10.70;99.90;;;;;;5017821;28;20456;-73
2023/12/16 06:56:07;;;;;;;0.38;0.38;;;10.70;99.90;;;;;;5027371;28;20080;-72
2023/12/16 06:58:34;;;;;;;4.75;0.35;;;10.70;99.90;;;;;;5016932;28;20061;-73
2023/12/16 07:01:00;;;;;;;0.57;0.40;;;10.70;99.90;;;;;;5026067;28;20033;-73
2023/12/16 07:03:28;;;;;;;0.52;0.45;;;10.70;99.90;;;;;;5016999;28;20040;-73
2023/12/16 07:05:54;;;;;;;0.65;0.60;;;10.70;99.90;;;;;;5026979;28;20034;-73
2023/12/16 07:08:20;;;;;;;2.47;0.55;;;10.70;99.90;;;;;;4996443;28;20018;-74
2023/12/16 07:10:45;;;;;;;0.55;0.47;;;10.60;99.90;;;;;;5025187;28;20037;-73
2023/12/16 07:13:11;;;;;;;0.45;0.35;;;10.60;99.90;;;;;;5030609;28;20029;-73
2023/12/16 07:15:38;;;;;;;0.50;0.50;;;10.60;99.90;;;;;;5015251;28;20426;-74
2023/12/16 07:18:03;;;;;;;0.88;0.60;;;10.60;99.90;;;;;;5021197;28;20021;-74
2023/12/16 07:20:29;;;;;;;0.88;0.88;;;10.70;99.90;;;;;;5008696;28;20039;-73
2023/12/16 07:22:55;;;;;;;2.17;0.35;;;10.70;99.90;;;;;;5026348;28;20124;-73
2023/12/16 07:25:21;;;;;;;3.90;0.93;;;10.70;99.90;;;;;;5021123;28;20175;-73
2023/12/16 07:27:47;;;;;;;2.10;0.70;;;10.70;99.90;;;;;;5026166;28;20091;-73
2023/12/16 07:30:13;;;;;;;6.00;1.10;;;10.70;99.90;;;;;;5016075;28;20180;-74
2023/12/16 07:32:40;;;;;;;3.42;0.60;;;10.70;99.90;;;;;;5035329;28;20499;-74
2023/12/16 07:35:12;;;;;;;1.65;0.50;;;10.80;99.90;;;;;;5015681;28;20036;-73
2023/12/16 07:37:40;;;;;;;2.85;0.65;;;10.70;99.90;;;;;;5029784;28;20033;-74
2023/12/16 07:40:07;;;;;;;2.58;0.85;;;10.80;99.90;;;;;;5015487;28;20025;-73
2023/12/16 07:42:32;;;;;;;0.82;0.70;;;10.80;99.90;;;;;;5028447;28;20387;-74
2023/12/16 07:44:58;;;;;;;0.57;0.40;;;10.80;99.90;;;;;;5021882;28;20177;-74
2023/12/16 07:47:24;;;;;;;1.27;1.10;;;10.80;99.90;;;;;;5027085;28;20120;-74
2023/12/16 07:49:49;;;;;;;6.45;1.73;;;10.90;99.90;;;;;;5015343;28;20588;-73
2023/12/16 07:52:16;;;;;;;4.03;1.23;;;10.90;99.90;;;;;;5032408;28;20041;-73
2023/12/16 07:54:42;;;;;;;3.03;0.98;;;10.80;99.90;;;;;;5025524;28;20512;-73
2023/12/16 07:57:07;;;;;;;0.75;0.70;;;10.90;99.90;;;;;;5019422;28;20114;-73
2023/12/16 07:59:33;;;;;;;0.95;0.93;;;10.80;99.90;;;;;;5037060;28;20037;-73
2023/12/16 08:02:03;;;;;;;2.53;1.08;;;10.80;99.90;;;;;;5017988;28;20045;-74
2023/12/16 08:04:29;;;;;;;0.85;0.85;;;10.80;99.90;;;;;;5033529;28;20051;-73
2023/12/16 08:06:55;;;;;;;8.18;1.10;;;10.80;99.90;;;;;;5021565;28;20041;-73
2023/12/16 08:09:20;;;;;;;1.40;0.65;;;10.80;99.90;;;;;;5038118;28;20040;-73
2023/12/16 08:11:46;;;;;;;0.45;0.40;;;10.80;99.90;;;;;;5025312;28;20196;-74
2023/12/16 08:14:12;;;;;;;0.43;0.40;;;10.80;99.90;;;;;;5033516;28;20097;-73
2023/12/16 08:16:38;;;;;;;0.80;0.70;;;10.80;99.90;;;;;;5020632;28;20052;-73
2023/12/16 08:19:04;;;;;;;0.45;0.45;;;10.90;99.90;;;;;;5033951;28;20029;-73
2023/12/16 08:21:29;;;;;;;0.95;0.70;;;10.90;99.90;;;;;;5015570;28;20053;-73
2023/12/16 08:23:55;;;;;;;0.47;0.47;;;10.90;99.90;;;;;;5035464;28;20095;-73
2023/12/16 08:26:21;;;;;;;4.40;1.10;;;10.90;99.90;;;;;;5017116;28;21159;-73
2023/12/16 08:28:46;;;;;;;0.57;0.52;;;10.90;99.90;;;;;;5024426;28;20029;-74
2023/12/16 08:31:12;;;;;;;1.88;0.68;;;10.90;99.90;;;;;;5015782;28;20037;-74
2023/12/16 08:33:37;;;;;;;0.32;0.30;;;10.90;99.90;;;;;;5026835;28;20039;-74
2023/12/16 08:36:03;;;;;;;10.18;1.27;;;11.00;99.90;;;;;;5026919;28;20029;-73
2023/12/16 08:38:30;;;;;;;0.40;0.40;;;11.00;99.90;;;;;;5015481;28;20512;-72
2023/12/16 08:40:57;;;;;;;0.47;0.47;;;11.00;99.90;;;;;;5023729;28;20041;-73
2023/12/16 08:43:23;;;;;;;1.27;1.17;;;11.00;99.90;;;;;;5016811;28;20029;-72
2023/12/16 08:45:49;;;;;;;1.73;0.70;;;11.00;99.90;;;;;;5028249;28;20501;-73
2023/12/16 08:48:15;;;;;;;1.13;0.73;;;11.00;99.90;;;;;;5010878;28;20044;-73
2023/12/16 08:50:42;;;;;;;0.68;0.68;;;11.00;99.90;;;;;;5027372;28;20033;-74
2023/12/16 08:53:09;;;;;;;0.85;0.73;;;11.00;99.90;;;;;;5017198;28;20480;-74
2023/12/16 08:55:35;;;;;;;0.93;0.82;;;11.00;99.90;;;;;;5017782;28;20064;-74
2023/12/16 08:58:00;;;;;;;1.75;1.17;;;11.10;99.90;;;;;;5008112;28;20124;-74
2023/12/16 09:00:26;;;;;;;5.20;1.02;;;11.10;99.90;;;;;;5024163;28;20037;-73
2023/12/16 09:02:51;;;;;;;4.90;1.38;;;11.20;99.90;;;;;;5012524;28;20035;-75
2023/12/16 09:05:19;;;;;;;0.95;0.85;;;11.20;99.90;;;;;;5027665;28;20474;-73
2023/12/16 09:07:45;;;;;;;1.15;0.85;;;11.20;99.90;;;;;;5010327;28;20018;-73
2023/12/16 09:10:11;;;;;;;0.60;0.60;;;11.20;99.90;;;;;;5026157;28;20025;-73
2023/12/16 09:12:37;;;;;;;0.65;0.55;;;11.20;99.90;;;;;;5014190;28;20742;-73
2023/12/16 09:15:04;;;;;;;1.65;0.60;;;11.20;99.90;;;;;;5023399;28;20378;-74
2023/12/16 09:17:29;;;;;;;0.52;0.40;;;11.20;99.90;;;;;;5025248;28;20032;-74
2023/12/16 09:19:55;;;;;;;2.60;0.50;;;11.30;99.90;;;;;;5020852;28;20041;-73
2023/12/16 09:22:21;;;;;;;3.20;0.50;;;11.30;99.90;;;;;;5021667;28;20040;-73
2023/12/16 09:24:47;;;;;;;1.73;0.47;;;11.30;99.90;;;;;;5013452;28;20045;-73
2023/12/16 09:27:13;;;;;;;0.68;0.60;;;11.30;99.90;;;;;;5023776;28;20514;-73
2023/12/16 09:29:39;;;;;;;0.30;0.30;;;11.30;99.90;;;;;;5009315;28;20079;-73
2023/12/16 09:32:05;;;;;;;0.30;0.30;;;11.40;99.90;;;;;;5027143;28;20053;-73
2023/12/16 09:34:31;;;;;;;1.17;0.50;;;11.50;99.90;;;;;;5008042;28;20040;-72
2023/12/16 09:36:57;;;;;;;0.35;0.30;;;11.60;99.90;;;;;;5024682;28;20026;-74
2023/12/16 09:39:23;;;;;;;0.65;0.60;;;11.70;99.90;;;;;;5014076;28;20048;-74
2023/12/16 09:41:49;;;;;;;0.50;0.50;;;11.70;99.90;;;;;;5021263;28;20033;-74
2023/12/16 09:44:16;;;;;;;0.57;0.38;;;11.80;99.90;;;;;;5013939;28;20039;-74
2023/12/16 09:46:43;;;;;;;1.35;0.45;;;11.80;99.90;;;;;;5027812;28;20056;-72
2023/12/16 09:49:09;;;;;;;1.60;0.40;;;11.80;99.90;;;;;;5008925;28;20039;-72
2023/12/16 09:51:35;;;;;;;2.00;1.17;;;11.90;99.90;;;;;;5028700;28;20033;-73
2023/12/16 09:54:01;;;;;;;0.73;0.55;;;11.90;99.90;;;;;;5012893;28;20586;-72
2023/12/16 09:56:28;;;;;;;0.30;0.30;;;11.90;99.90;;;;;;5024706;28;20029;-73
2023/12/16 09:58:56;;;;;;;0.35;0.28;;;11.90;99.90;;;;;;5016327;28;20029;-73
2023/12/16 10:01:21;;;;;;;4.22;0.47;;;12.00;99.90;;;;;;5020428;28;20037;-73
2023/12/16 10:03:47;;;;;;;1.73;0.22;;;12.00;99.90;;;;;;5024090;28;20470;-72
2023/12/16 10:06:14;;;;;;;3.92;1.55;;;12.00;99.90;;;;;;5019070;28;20041;-72
2023/12/16 10:08:41;;;;;;;0.55;0.40;;;12.20;99.90;;;;;;5020911;28;20139;-73
2023/12/16 10:11:07;;;;;;;2.53;0.50;;;12.20;99.90;;;;;;5016737;28;20033;-72
2023/12/16 10:13:53;;;;;;;0.22;0.20;;;12.20;99.90;;;;;;5026717;28;20032;-72
2023/12/16 10:16:21;;;;;;;1.10;0.45;;;12.20;99.90;;;;;;5009865;28;20030;-73
2023/12/16 10:18:51;;;;;;;2.35;0.50;;;12.20;99.90;;;;;;5027800;28;20091;-72
2023/12/16 10:21:21;;;;;;;1.70;0.40;;;12.20;99.90;;;;;;5010699;28;20418;-73
2023/12/16 10:23:47;;;;;;;0.38;0.30;;;12.30;99.90;;;;;;5028149;28;20040;-73
2023/12/16 10:26:13;;;;;;;0.22;0.20;;;12.30;99.90;;;;;;5013770;28;20030;-72
2023/12/16 10:28:39;;;;;;;0.30;0.30;;;12.30;99.90;;;;;;5022095;28;20551;-72
2023/12/16 10:31:05;;;;;;;3.88;0.45;;;12.20;99.90;;;;;;5014382;28;20101;-74
2023/12/16 10:33:31;;;;;;;1.00;0.35;;;12.30;99.90;;;;;;5031466;28;20516;-73
2023/12/16 10:35:57;;;;;;;5.22;0.43;;;12.20;99.90;;;;;;5011290;28;20025;-71
2023/12/16 10:38:25;;;;;;;0.40;0.40;;;12.20;99.90;;;;;;5026841;28;20071;-72
2023/12/16 10:40:52;;;;;;;1.75;0.40;;;12.20;99.90;;;;;;5016980;28;20509;-72
2023/12/16 10:43:17;;;;;;;1.77;0.85;;;12.20;99.90;;;;;;5029412;28;20037;-72
2023/12/16 10:45:43;;;;;;;1.38;0.55;;;12.20;99.90;;;;;;5018375;28;20168;-71
2023/12/16 10:48:11;;;;;;;0.10;0.10;;;12.30;99.90;;;;;;5038478;28;20048;-72
2023/12/16 10:50:44;;;;;;;1.45;0.22;;;12.30;99.90;;;;;;5022787;28;20040;-73
2023/12/16 10:53:20;;;;;;;0.25;0.10;;;12.30;99.90;;;;;;5030652;28;20052;-72
2023/12/16 10:55:52;;;;;;;0.85;0.70;;;12.30;99.90;;;;;;5015179;28;20384;-71
2023/12/16 10:58:26;;;;;;;4.68;0.43;;;12.30;99.90;;;;;;5025610;28;20038;-72
2023/12/16 11:00:52;;;;;;;0.30;0.25;;;12.30;99.90;;;;;;5027150;28;20049;-71
2023/12/16 11:03:33;;;;;;;1.55;0.20;;;12.40;99.90;;;;;;5016438;28;21045;-71
2023/12/16 11:06:07;;;;;;;0.73;0.20;;;12.50;99.90;;;;;;5029436;28;20040;-73
2023/12/16 11:08:34;;;;;;;0.20;0.13;;;12.40;99.90;;;;;;5020788;28;20045;-72
2023/12/16 11:11:01;;;;;;;2.83;0.60;;;12.40;99.90;;;;;;5028157;28;20072;-73
2023/12/16 11:13:27;;;;;;;0.00;0.00;;;12.50;99.90;;;;;;5018336;28;20489;-73
2023/12/16 11:16:01;;;;;;;0.70;0.40;;;12.60;99.90;;;;;;5022016;28;20037;-73
2023/12/16 11:18:28;;;;;;;5.25;0.30;;;12.60;99.90;;;;;;5013956;28;20035;-72
2023/12/16 11:21:01;;;;;;;1.27;0.30;;;12.60;99.90;;;;;;5029183;28;20778;-72
2023/12/16 11:23:29;;;;;;;0.10;0.10;;;12.50;99.90;;;;;;5014088;28;20060;-72
2023/12/16 11:25:55;;;;;;;0.10;0.10;;;12.40;99.90;;;;;;5027094;28;20040;-71
2023/12/16 11:28:21;;;;;;;0.10;0.10;;;12.40;99.90;;;;;;5009974;28;20049;-72
2023/12/16 11:30:47;;;;;;;1.70;0.30;;;12.50;99.90;;;;;;5027190;28;21477;-72
2023/12/16 11:33:13;;;;;;;0.20;0.20;;;12.40;99.90;;;;;;5018056;28;20068;-73
2023/12/16 11:35:47;;;;;;;0.55;0.17;;;12.40;99.90;;;;;;5026020;28;20672;-74
2023/12/16 11:38:34;;;;;;;1.80;0.32;;;12.50;99.90;;;;;;5016571;28;20040;-73
2023/12/16 11:41:00;;;;;;;0.30;0.13;;;12.40;99.90;;;;;;5028341;28;20029;-72
2023/12/16 11:43:46;;;;;;;1.65;0.30;;;12.40;99.90;;;;;;5013431;28;20382;-72
2023/12/16 11:46:33;;;;;;;0.50;0.40;;;12.30;99.90;;;;;;5029784;28;20025;-72
2023/12/16 11:49:02;;;;;;;1.45;0.35;;;12.30;99.90;;;;;;5012957;28;20037;-73
2023/12/16 11:51:27;;;;;;;0.13;0.10;;;12.20;99.90;;;;;;5027741;28;20072;-73
2023/12/16 11:53:56;;;;;;;1.20;0.45;;;12.30;99.90;;;;;;5019293;28;20180;-73
2023/12/16 11:56:22;;;;;;;1.88;0.30;;;12.30;99.90;;;;;;5023642;28;20498;-73
2023/12/16 11:58:48;;;;;;;0.73;0.40;;;12.40;99.90;;;;;;5019316;28;20041;-71
2023/12/16 12:01:14;;;;;;;0.10;0.10;;;12.40;99.90;;;;;;5028121;28;20044;-72
2023/12/16 12:03:39;;;;;;;0.45;0.22;;;12.40;99.90;;;;;;5015795;28;20037;-73
2023/12/16 12:06:08;;;;;;;0.30;0.30;;;12.20;99.90;;;;;;5033573;28;20032;-72
2023/12/16 12:08:34;;;;;;;0.25;0.10;;;12.50;99.90;;;;;;5017088;28;20828;-73
2023/12/16 12:11:00;;;;;;;2.67;0.60;;;12.40;99.90;;;;;;5031856;28;20072;-71
2023/12/16 12:13:25;;;;;;;2.90;0.30;;;12.20;99.90;;;;;;5019178;28;20266;-72
2023/12/16 12:15:51;;;;;;;3.03;0.13;;;12.30;99.90;;;;;;5022788;28;20532;-73
2023/12/16 12:18:17;;;;;;;0.93;0.30;;;12.30;99.90;;;;;;5033034;28;20043;-73
2023/12/16 12:20:44;;;;;;;0.15;0.15;;;12.40;99.90;;;;;;5020719;28;20389;-72
2023/12/16 12:23:11;;;;;;;1.58;0.30;;;12.50;99.90;;;;;;5025981;28;20108;-72
2023/12/16 12:25:37;;;;;;;1.17;0.47;;;;;;;;;;5015558;28;20038;-71
2023/12/16 12:28:09;;;;;;;0.55;0.38;;;;;;;;;;5027292;28;20056;-73
2023/12/16 12:30:34;;;;;;;7.18;1.75;;;12.50;99.90;;;;;;5013248;28;20048;-72
2023/12/16 12:33:00;;;;;;;2.35;0.90;;;12.50;99.90;;;;;;5032086;28;20030;-72
2023/12/16 12:35:26;;;;;;;7.20;3.83;;;;;;;;;;5015966;28;20033;-73
2023/12/16 12:37:53;;;;;;;3.72;1.42;;;12.30;99.90;;;;;;5028462;28;20503;-72
2023/12/16 12:40:19;;;;;;;3.63;2.95;;;12.40;99.90;;;;;;5020802;28;20032;-72
2023/12/16 12:42:50;;;;;;;1.05;0.73;;;12.30;99.90;;;;;;5028223;28;20045;-72
2023/12/16 12:45:24;;;;;;;3.83;1.00;;;12.40;99.90;;;;;;5015507;28;20225;-72